This is the latest recevied weather packets stored in our database for station/object IZ1UQG-1. If no packets are shown the sender has not sent any weather packets the latest 10 day(s).
| Time | Temp. | Humidity | Pressure | Rain* | Wind** | Luminosity | Snow |
|---|---|---|---|---|---|---|---|
| 1777298352 | 31.67° C | 32% | 1014 hPa | 38.1 mm | - | - | - |
| 1777298052 | 31.67° C | 32% | 1014 hPa | 55.88 mm | - | - | - |
| 1777297752 | 31.11° C | 32% | 1014.2 hPa | 58.42 mm | - | - | - |
| 1777297452 | 30.56° C | 34% | 1014.4 hPa | 57.91 mm | - | - | - |
| 1777297152 | 31.11° C | 33% | 1014.3 hPa | 59.44 mm | - | - | - |
| 1777296852 | 31.11° C | 33% | 1014.3 hPa | 74.42 mm | - | - | - |
| 1777296552 | 30.56° C | 34% | 1014.5 hPa | 77.98 mm | - | - | - |
| 1777296252 | 30° C | 34% | 1014.4 hPa | 78.49 mm | - | - | - |
| 1777295952 | 30° C | 34% | 1014.6 hPa | 71.88 mm | - | - | - |
| 1777295652 | 30.56° C | 33% | 1014.5 hPa | 83.31 mm | - | - | - |
| 1777295354 | 30.56° C | 33% | 1014.7 hPa | 88.9 mm | - | - | - |
| 1777295052 | 30.56° C | 33% | 1014.7 hPa | 93.22 mm | - | - | - |
| 1777294752 | 30° C | 33% | 1014.8 hPa | 88.9 mm | - | - | - |
| 1777294452 | 30° C | 34% | 1014.8 hPa | 104.39 mm | - | - | - |
| 1777294152 | 30° C | 34% | 1014.8 hPa | 102.87 mm | - | - | - |
| 1777293852 | 29.44° C | 34% | 1015 hPa | 112.27 mm | - | - | - |
| 1777293552 | 29.44° C | 34% | 1014.8 hPa | 109.22 mm | - | - | - |
| 1777293252 | 29.44° C | 35% | 1014.8 hPa | 122.17 mm | - | - | - |
| 1777292952 | 30° C | 35% | 1014.8 hPa | 124.21 mm | - | - | - |
| 1777292652 | 30° C | 35% | 1015 hPa | 122.17 mm | - | - | - |
| 1777292352 | 30° C | 36% | 1015 hPa | 129.29 mm | - | - | - |
| 1777292052 | 29.44° C | 37% | 1015.1 hPa | 142.75 mm | - | - | - |
| 1777291752 | 29.44° C | 37% | 1015.1 hPa | 129.79 mm | - | - | - |
| 1777291452 | 28.89° C | 37% | 1015.2 hPa | 127.25 mm | - | - | - |
| 1777291152 | 28.89° C | 37% | 1015.2 hPa | 110.74 mm | - | - | - |
* Rain latest hour (hover to see other rain measurements)
** Current wind speed in m/s (hover to see current wind gust speed)